sensor_id;sensor_type;location;lat;lon;timestamp;temperature;humidity
15900;DHT22;8048;50.644;6.184;2023-07-20T00:02:15;16.20;99.90
15900;DHT22;8048;50.644;6.184;2023-07-20T00:04:41;16.20;99.90
15900;DHT22;8048;50.644;6.184;2023-07-20T00:07:06;16.20;99.90
15900;DHT22;8048;50.644;6.184;2023-07-20T00:09:32;16.20;99.90
15900;DHT22;8048;50.644;6.184;2023-07-20T00:11:57;16.20;99.90
15900;DHT22;8048;50.644;6.184;2023-07-20T00:14:25;16.20;99.90
15900;DHT22;8048;50.644;6.184;2023-07-20T00:16:51;16.20;99.90
15900;DHT22;8048;50.644;6.184;2023-07-20T00:19:26;16.20;99.90
15900;DHT22;8048;50.644;6.184;2023-07-20T00:21:52;16.20;99.90
15900;DHT22;8048;50.644;6.184;2023-07-20T00:24:18;16.20;99.90
15900;DHT22;8048;50.644;6.184;2023-07-20T00:26:44;16.20;99.90
15900;DHT22;8048;50.644;6.184;2023-07-20T00:29:10;16.10;99.90
15900;DHT22;8048;50.644;6.184;2023-07-20T00:31:36;16.10;99.90
15900;DHT22;8048;50.644;6.184;2023-07-20T00:34:03;16.10;99.90
15900;DHT22;8048;50.644;6.184;2023-07-20T00:36:28;16.10;99.90
15900;DHT22;8048;50.644;6.184;2023-07-20T00:38:54;16.10;99.90
15900;DHT22;8048;50.644;6.184;2023-07-20T00:41:20;16.00;99.90
15900;DHT22;8048;50.644;6.184;2023-07-20T00:43:45;16.10;99.90
15900;DHT22;8048;50.644;6.184;2023-07-20T00:46:11;16.10;99.90
15900;DHT22;8048;50.644;6.184;2023-07-20T00:48:37;16.10;99.90
15900;DHT22;8048;50.644;6.184;2023-07-20T00:51:03;16.10;99.90
15900;DHT22;8048;50.644;6.184;2023-07-20T00:53:29;16.10;99.90
15900;DHT22;8048;50.644;6.184;2023-07-20T00:55:55;16.10;99.90
15900;DHT22;8048;50.644;6.184;2023-07-20T00:58:21;16.10;99.90
15900;DHT22;8048;50.644;6.184;2023-07-20T01:00:47;16.00;99.90
15900;DHT22;8048;50.644;6.184;2023-07-20T01:03:12;16.00;99.90
15900;DHT22;8048;50.644;6.184;2023-07-20T01:09:02;15.90;99.90
15900;DHT22;8048;50.644;6.184;2023-07-20T01:11:24;15.90;99.90
15900;DHT22;8048;50.644;6.184;2023-07-20T01:13:52;15.80;99.90
15900;DHT22;8048;50.644;6.184;2023-07-20T01:16:17;15.70;99.90
15900;DHT22;8048;50.644;6.184;2023-07-20T01:18:43;15.70;99.90
15900;DHT22;8048;50.644;6.184;2023-07-20T01:21:18;15.60;99.90
15900;DHT22;8048;50.644;6.184;2023-07-20T01:28:57;15.50;99.90
15900;DHT22;8048;50.644;6.184;2023-07-20T01:31:28;15.50;99.90
15900;DHT22;8048;50.644;6.184;2023-07-20T01:33:58;15.40;99.90
15900;DHT22;8048;50.644;6.184;2023-07-20T01:36:26;15.30;99.90
15900;DHT22;8048;50.644;6.184;2023-07-20T01:38:53;15.20;99.90
15900;DHT22;8048;50.644;6.184;2023-07-20T01:41:20;15.20;99.90
15900;DHT22;8048;50.644;6.184;2023-07-20T01:43:46;15.10;99.90
15900;DHT22;8048;50.644;6.184;2023-07-20T01:46:11;15.10;99.90
15900;DHT22;8048;50.644;6.184;2023-07-20T01:48:37;15.10;99.90
15900;DHT22;8048;50.644;6.184;2023-07-20T01:51:02;15.00;99.90
15900;DHT22;8048;50.644;6.184;2023-07-20T01:53:28;14.90;99.90
15900;DHT22;8048;50.644;6.184;2023-07-20T01:55:54;14.80;99.90
15900;DHT22;8048;50.644;6.184;2023-07-20T01:58:20;14.80;99.90
15900;DHT22;8048;50.644;6.184;2023-07-20T02:00:45;14.80;99.90
15900;DHT22;8048;50.644;6.184;2023-07-20T02:03:11;14.70;99.90
15900;DHT22;8048;50.644;6.184;2023-07-20T02:05:37;14.70;99.90
15900;DHT22;8048;50.644;6.184;2023-07-20T02:08:03;14.70;99.90
15900;DHT22;8048;50.644;6.184;2023-07-20T02:10:28;14.70;99.90
15900;DHT22;8048;50.644;6.184;2023-07-20T02:12:54;14.60;99.90
15900;DHT22;8048;50.644;6.184;2023-07-20T02:15:20;14.60;99.90
15900;DHT22;8048;50.644;6.184;2023-07-20T02:17:46;14.60;99.90
15900;DHT22;8048;50.644;6.184;2023-07-20T02:20:12;14.50;99.90
15900;DHT22;8048;50.644;6.184;2023-07-20T02:22:38;14.50;99.90
15900;DHT22;8048;50.644;6.184;2023-07-20T02:25:05;14.50;99.90
15900;DHT22;8048;50.644;6.184;2023-07-20T02:27:30;14.50;99.90
15900;DHT22;8048;50.644;6.184;2023-07-20T02:29:56;14.60;99.90
15900;DHT22;8048;50.644;6.184;2023-07-20T02:32:21;14.60;99.90
15900;DHT22;8048;50.644;6.184;2023-07-20T02:34:47;14.60;99.90
15900;DHT22;8048;50.644;6.184;2023-07-20T02:37:12;14.70;99.90
15900;DHT22;8048;50.644;6.184;2023-07-20T02:39:39;14.60;99.90
15900;DHT22;8048;50.644;6.184;2023-07-20T02:42:05;14.60;99.90
15900;DHT22;8048;50.644;6.184;2023-07-20T02:44:30;14.60;99.90
15900;DHT22;8048;50.644;6.184;2023-07-20T02:46:56;14.60;99.90
15900;DHT22;8048;50.644;6.184;2023-07-20T02:49:21;14.60;99.90
15900;DHT22;8048;50.644;6.184;2023-07-20T02:51:47;14.60;99.90
15900;DHT22;8048;50.644;6.184;2023-07-20T02:54:12;14.70;99.90
15900;DHT22;8048;50.644;6.184;2023-07-20T02:56:38;14.60;99.90
15900;DHT22;8048;50.644;6.184;2023-07-20T02:59:03;14.70;99.90
15900;DHT22;8048;50.644;6.184;2023-07-20T03:01:29;14.70;99.90
15900;DHT22;8048;50.644;6.184;2023-07-20T03:03:58;14.70;99.90
15900;DHT22;8048;50.644;6.184;2023-07-20T03:06:23;14.70;99.90
15900;DHT22;8048;50.644;6.184;2023-07-20T03:08:49;14.80;99.90
15900;DHT22;8048;50.644;6.184;2023-07-20T03:11:17;14.80;99.90
15900;DHT22;8048;50.644;6.184;2023-07-20T03:13:44;14.80;99.90
15900;DHT22;8048;50.644;6.184;2023-07-20T03:16:11;14.90;99.90
15900;DHT22;8048;50.644;6.184;2023-07-20T03:18:40;14.80;99.90
15900;DHT22;8048;50.644;6.184;2023-07-20T03:21:09;14.90;99.90
15900;DHT22;8048;50.644;6.184;2023-07-20T03:23:37;14.80;99.90
15900;DHT22;8048;50.644;6.184;2023-07-20T03:26:03;14.80;99.90
15900;DHT22;8048;50.644;6.184;2023-07-20T03:28:28;14.80;99.90
15900;DHT22;8048;50.644;6.184;2023-07-20T03:30:57;14.90;99.90
15900;DHT22;8048;50.644;6.184;2023-07-20T03:33:27;14.90;99.90
15900;DHT22;8048;50.644;6.184;2023-07-20T03:35:53;14.80;99.90
15900;DHT22;8048;50.644;6.184;2023-07-20T03:38:19;14.90;99.90
15900;DHT22;8048;50.644;6.184;2023-07-20T03:40:52;14.80;99.90
15900;DHT22;8048;50.644;6.184;2023-07-20T03:43:18;14.80;99.90
15900;DHT22;8048;50.644;6.184;2023-07-20T03:45:43;14.90;99.90
15900;DHT22;8048;50.644;6.184;2023-07-20T03:48:11;14.90;99.90
15900;DHT22;8048;50.644;6.184;2023-07-20T03:50:36;15.00;99.90
15900;DHT22;8048;50.644;6.184;2023-07-20T03:53:02;15.00;99.90
15900;DHT22;8048;50.644;6.184;2023-07-20T03:55:27;14.90;99.90
15900;DHT22;8048;50.644;6.184;2023-07-20T03:57:53;14.90;99.90
15900;DHT22;8048;50.644;6.184;2023-07-20T04:00:19;14.90;99.90
15900;DHT22;8048;50.644;6.184;2023-07-20T04:02:44;14.90;99.90
15900;DHT22;8048;50.644;6.184;2023-07-20T04:05:10;14.90;99.90
15900;DHT22;8048;50.644;6.184;2023-07-20T04:07:35;14.90;99.90
15900;DHT22;8048;50.644;6.184;2023-07-20T04:10:01;15.00;99.90
15900;DHT22;8048;50.644;6.184;2023-07-20T04:12:27;15.00;99.90
15900;DHT22;8048;50.644;6.184;2023-07-20T04:14:52;14.90;99.90
15900;DHT22;8048;50.644;6.184;2023-07-20T04:17:18;14.90;99.90
15900;DHT22;8048;50.644;6.184;2023-07-20T04:19:43;14.90;99.90
15900;DHT22;8048;50.644;6.184;2023-07-20T04:22:09;14.90;99.90
15900;DHT22;8048;50.644;6.184;2023-07-20T04:24:35;15.00;99.90
15900;DHT22;8048;50.644;6.184;2023-07-20T04:27:00;14.90;99.90
15900;DHT22;8048;50.644;6.184;2023-07-20T04:29:26;14.90;99.90
15900;DHT22;8048;50.644;6.184;2023-07-20T04:31:51;15.00;99.90
15900;DHT22;8048;50.644;6.184;2023-07-20T04:34:17;15.00;99.90
15900;DHT22;8048;50.644;6.184;2023-07-20T04:36:42;15.00;99.90
15900;DHT22;8048;50.644;6.184;2023-07-20T04:39:09;15.10;99.90
15900;DHT22;8048;50.644;6.184;2023-07-20T04:41:35;15.10;99.90
15900;DHT22;8048;50.644;6.184;2023-07-20T04:44:01;15.10;99.90
15900;DHT22;8048;50.644;6.184;2023-07-20T04:46:26;15.00;99.90
15900;DHT22;8048;50.644;6.184;2023-07-20T04:48:52;15.00;99.90
15900;DHT22;8048;50.644;6.184;2023-07-20T04:51:17;15.00;99.90
15900;DHT22;8048;50.644;6.184;2023-07-20T04:53:46;15.00;99.90
15900;DHT22;8048;50.644;6.184;2023-07-20T04:56:12;15.10;99.90
15900;DHT22;8048;50.644;6.184;2023-07-20T04:58:38;15.00;99.90
15900;DHT22;8048;50.644;6.184;2023-07-20T05:01:03;15.10;99.90
15900;DHT22;8048;50.644;6.184;2023-07-20T05:03:29;15.10;99.90
15900;DHT22;8048;50.644;6.184;2023-07-20T05:05:54;15.10;99.90
15900;DHT22;8048;50.644;6.184;2023-07-20T05:08:20;15.20;99.90
15900;DHT22;8048;50.644;6.184;2023-07-20T05:10:47;15.30;99.90
15900;DHT22;8048;50.644;6.184;2023-07-20T05:13:13;15.20;99.90
15900;DHT22;8048;50.644;6.184;2023-07-20T05:15:39;15.30;99.90
15900;DHT22;8048;50.644;6.184;2023-07-20T05:18:05;15.30;99.90
15900;DHT22;8048;50.644;6.184;2023-07-20T05:20:31;15.30;99.90
15900;DHT22;8048;50.644;6.184;2023-07-20T05:22:58;15.40;99.90
15900;DHT22;8048;50.644;6.184;2023-07-20T05:25:24;15.50;99.90
15900;DHT22;8048;50.644;6.184;2023-07-20T05:27:51;15.50;99.90
15900;DHT22;8048;50.644;6.184;2023-07-20T05:30:17;15.60;99.90
15900;DHT22;8048;50.644;6.184;2023-07-20T05:32:43;15.50;99.90
15900;DHT22;8048;50.644;6.184;2023-07-20T05:35:11;15.50;99.90
15900;DHT22;8048;50.644;6.184;2023-07-20T05:37:37;15.50;99.90
15900;DHT22;8048;50.644;6.184;2023-07-20T05:40:05;15.50;99.90
15900;DHT22;8048;50.644;6.184;2023-07-20T05:42:31;15.60;99.90
15900;DHT22;8048;50.644;6.184;2023-07-20T05:44:57;15.60;99.90
15900;DHT22;8048;50.644;6.184;2023-07-20T05:47:22;15.60;99.90
15900;DHT22;8048;50.644;6.184;2023-07-20T05:49:48;15.60;99.90
15900;DHT22;8048;50.644;6.184;2023-07-20T05:52:13;15.80;99.90
15900;DHT22;8048;50.644;6.184;2023-07-20T05:54:39;15.80;99.90
15900;DHT22;8048;50.644;6.184;2023-07-20T05:57:04;15.90;99.90
15900;DHT22;8048;50.644;6.184;2023-07-20T05:59:30;15.90;99.90
15900;DHT22;8048;50.644;6.184;2023-07-20T06:01:56;15.90;99.90
15900;DHT22;8048;50.644;6.184;2023-07-20T06:04:22;16.00;99.90
15900;DHT22;8048;50.644;6.184;2023-07-20T06:06:48;16.10;99.90
15900;DHT22;8048;50.644;6.184;2023-07-20T06:09:13;16.10;99.90
15900;DHT22;8048;50.644;6.184;2023-07-20T06:11:39;16.20;99.90
15900;DHT22;8048;50.644;6.184;2023-07-20T06:14:05;16.30;99.90
15900;DHT22;8048;50.644;6.184;2023-07-20T06:16:31;16.40;99.90
15900;DHT22;8048;50.644;6.184;2023-07-20T06:18:56;16.40;99.90
15900;DHT22;8048;50.644;6.184;2023-07-20T06:21:22;16.50;99.90
15900;DHT22;8048;50.644;6.184;2023-07-20T06:23:48;16.60;99.90
15900;DHT22;8048;50.644;6.184;2023-07-20T06:26:13;16.70;99.90
15900;DHT22;8048;50.644;6.184;2023-07-20T06:28:39;16.70;99.90
15900;DHT22;8048;50.644;6.184;2023-07-20T06:31:04;16.70;99.90
15900;DHT22;8048;50.644;6.184;2023-07-20T06:33:30;16.70;99.90
15900;DHT22;8048;50.644;6.184;2023-07-20T06:35:56;16.80;99.90
15900;DHT22;8048;50.644;6.184;2023-07-20T06:38:23;16.80;99.90
15900;DHT22;8048;50.644;6.184;2023-07-20T06:40:51;16.70;99.90
15900;DHT22;8048;50.644;6.184;2023-07-20T06:43:17;16.80;99.90
15900;DHT22;8048;50.644;6.184;2023-07-20T06:45:43;16.80;99.90
15900;DHT22;8048;50.644;6.184;2023-07-20T06:48:08;16.80;99.90
15900;DHT22;8048;50.644;6.184;2023-07-20T06:50:34;16.90;99.90
15900;DHT22;8048;50.644;6.184;2023-07-20T06:53:00;17.00;99.90
15900;DHT22;8048;50.644;6.184;2023-07-20T06:55:26;17.20;99.90
15900;DHT22;8048;50.644;6.184;2023-07-20T06:57:51;17.20;99.90
15900;DHT22;8048;50.644;6.184;2023-07-20T07:00:17;17.30;99.90
15900;DHT22;8048;50.644;6.184;2023-07-20T07:02:43;17.40;99.90
15900;DHT22;8048;50.644;6.184;2023-07-20T07:05:09;17.40;99.80
15900;DHT22;8048;50.644;6.184;2023-07-20T07:07:34;17.40;99.30
15900;DHT22;8048;50.644;6.184;2023-07-20T07:10:01;17.50;99.20
15900;DHT22;8048;50.644;6.184;2023-07-20T07:12:29;17.60;99.10
15900;DHT22;8048;50.644;6.184;2023-07-20T07:14:55;17.60;98.60
15900;DHT22;8048;50.644;6.184;2023-07-20T07:17:20;17.70;98.80
15900;DHT22;8048;50.644;6.184;2023-07-20T07:19:46;17.80;97.90
15900;DHT22;8048;50.644;6.184;2023-07-20T07:22:11;18.00;98.70
15900;DHT22;8048;50.644;6.184;2023-07-20T07:24:37;18.10;98.20
15900;DHT22;8048;50.644;6.184;2023-07-20T07:27:03;18.10;97.80
15900;DHT22;8048;50.644;6.184;2023-07-20T07:29:29;18.00;97.70
15900;DHT22;8048;50.644;6.184;2023-07-20T07:31:55;18.00;97.70
15900;DHT22;8048;50.644;6.184;2023-07-20T07:34:20;18.00;97.60
15900;DHT22;8048;50.644;6.184;2023-07-20T07:36:46;18.10;97.10
15900;DHT22;8048;50.644;6.184;2023-07-20T07:39:12;18.20;97.10
15900;DHT22;8048;50.644;6.184;2023-07-20T07:41:38;18.40;96.50
15900;DHT22;8048;50.644;6.184;2023-07-20T07:44:03;18.50;95.60
15900;DHT22;8048;50.644;6.184;2023-07-20T07:46:29;18.50;95.40
15900;DHT22;8048;50.644;6.184;2023-07-20T07:48:54;18.70;95.50
15900;DHT22;8048;50.644;6.184;2023-07-20T07:51:20;18.80;95.60
15900;DHT22;8048;50.644;6.184;2023-07-20T07:53:46;18.90;95.70
15900;DHT22;8048;50.644;6.184;2023-07-20T07:56:12;19.00;95.20
15900;DHT22;8048;50.644;6.184;2023-07-20T07:58:37;19.10;94.50
15900;DHT22;8048;50.644;6.184;2023-07-20T08:01:03;19.20;94.30
15900;DHT22;8048;50.644;6.184;2023-07-20T08:03:29;19.30;93.00
15900;DHT22;8048;50.644;6.184;2023-07-20T08:05:55;19.50;92.90
15900;DHT22;8048;50.644;6.184;2023-07-20T08:08:21;19.70;93.40
15900;DHT22;8048;50.644;6.184;2023-07-20T08:10:46;19.80;93.40
15900;DHT22;8048;50.644;6.184;2023-07-20T08:13:13;19.90;92.90
15900;DHT22;8048;50.644;6.184;2023-07-20T08:15:39;19.80;93.30
15900;DHT22;8048;50.644;6.184;2023-07-20T08:18:04;19.70;93.60
15900;DHT22;8048;50.644;6.184;2023-07-20T08:20:31;19.80;93.90
15900;DHT22;8048;50.644;6.184;2023-07-20T08:22:57;19.90;92.60
15900;DHT22;8048;50.644;6.184;2023-07-20T08:25:25;20.00;92.90
15900;DHT22;8048;50.644;6.184;2023-07-20T08:27:50;20.20;93.00
15900;DHT22;8048;50.644;6.184;2023-07-20T08:30:16;20.30;93.10
15900;DHT22;8048;50.644;6.184;2023-07-20T08:32:42;20.30;92.60
15900;DHT22;8048;50.644;6.184;2023-07-20T08:35:08;20.40;91.80
15900;DHT22;8048;50.644;6.184;2023-07-20T08:37:34;20.50;92.00
15900;DHT22;8048;50.644;6.184;2023-07-20T08:40:06;20.50;92.10
15900;DHT22;8048;50.644;6.184;2023-07-20T08:42:35;20.50;92.20
15900;DHT22;8048;50.644;6.184;2023-07-20T08:45:05;20.60;91.80
15900;DHT22;8048;50.644;6.184;2023-07-20T08:47:33;20.60;91.80
15900;DHT22;8048;50.644;6.184;2023-07-20T08:49:59;20.60;91.60
15900;DHT22;8048;50.644;6.184;2023-07-20T08:52:26;20.80;92.50
15900;DHT22;8048;50.644;6.184;2023-07-20T08:54:52;21.00;91.80
15900;DHT22;8048;50.644;6.184;2023-07-20T08:57:20;21.20;91.10
15900;DHT22;8048;50.644;6.184;2023-07-20T08:59:46;21.50;90.30
15900;DHT22;8048;50.644;6.184;2023-07-20T09:02:16;21.50;87.90
15900;DHT22;8048;50.644;6.184;2023-07-20T09:04:44;21.60;87.20
15900;DHT22;8048;50.644;6.184;2023-07-20T09:07:11;21.70;86.60
15900;DHT22;8048;50.644;6.184;2023-07-20T09:12:15;21.90;86.80
15900;DHT22;8048;50.644;6.184;2023-07-20T09:14:43;21.90;86.70
15900;DHT22;8048;50.644;6.184;2023-07-20T09:17:13;21.80;86.70
15900;DHT22;8048;50.644;6.184;2023-07-20T09:19:38;21.80;86.90
15900;DHT22;8048;50.644;6.184;2023-07-20T09:22:05;21.80;85.80
15900;DHT22;8048;50.644;6.184;2023-07-20T09:24:32;21.80;86.80
15900;DHT22;8048;50.644;6.184;2023-07-20T09:27:01;22.00;84.90
15900;DHT22;8048;50.644;6.184;2023-07-20T09:29:30;22.20;82.10
15900;DHT22;8048;50.644;6.184;2023-07-20T09:32:03;22.40;81.50
15900;DHT22;8048;50.644;6.184;2023-07-20T09:34:32;22.70;82.00
15900;DHT22;8048;50.644;6.184;2023-07-20T09:37:00;22.90;83.60
15900;DHT22;8048;50.644;6.184;2023-07-20T09:39:27;23.00;82.50
15900;DHT22;8048;50.644;6.184;2023-07-20T09:41:52;23.10;81.40
15900;DHT22;8048;50.644;6.184;2023-07-20T09:44:18;23.30;81.30
15900;DHT22;8048;50.644;6.184;2023-07-20T09:46:49;23.50;79.50
15900;DHT22;8048;50.644;6.184;2023-07-20T09:49:14;23.50;79.10
15900;DHT22;8048;50.644;6.184;2023-07-20T09:51:42;23.60;78.20
15900;DHT22;8048;50.644;6.184;2023-07-20T09:54:08;23.70;78.70
15900;DHT22;8048;50.644;6.184;2023-07-20T09:56:35;23.80;79.00
15900;DHT22;8048;50.644;6.184;2023-07-20T09:59:00;23.80;75.30
15900;DHT22;8048;50.644;6.184;2023-07-20T10:01:26;24.00;77.40
15900;DHT22;8048;50.644;6.184;2023-07-20T10:03:54;24.20;76.80
15900;DHT22;8048;50.644;6.184;2023-07-20T10:06:24;24.30;75.60
15900;DHT22;8048;50.644;6.184;2023-07-20T10:08:53;24.30;74.90
15900;DHT22;8048;50.644;6.184;2023-07-20T10:11:21;24.30;74.90
15900;DHT22;8048;50.644;6.184;2023-07-20T10:13:51;24.50;73.90
15900;DHT22;8048;50.644;6.184;2023-07-20T10:16:39;24.80;72.30
15900;DHT22;8048;50.644;6.184;2023-07-20T10:19:24;24.90;71.50
15900;DHT22;8048;50.644;6.184;2023-07-20T10:22:00;24.90;72.00
15900;DHT22;8048;50.644;6.184;2023-07-20T10:24:28;24.90;72.60
15900;DHT22;8048;50.644;6.184;2023-07-20T10:26:55;24.60;72.20
15900;DHT22;8048;50.644;6.184;2023-07-20T10:29:21;24.60;71.90
15900;DHT22;8048;50.644;6.184;2023-07-20T10:31:47;24.70;70.10
15900;DHT22;8048;50.644;6.184;2023-07-20T10:34:13;24.60;69.30
15900;DHT22;8048;50.644;6.184;2023-07-20T10:36:45;24.60;72.10
15900;DHT22;8048;50.644;6.184;2023-07-20T10:39:32;24.90;71.70
15900;DHT22;8048;50.644;6.184;2023-07-20T10:42:09;25.10;70.30
15900;DHT22;8048;50.644;6.184;2023-07-20T10:44:37;25.50;70.40
15900;DHT22;8048;50.644;6.184;2023-07-20T10:47:08;25.60;67.30
15900;DHT22;8048;50.644;6.184;2023-07-20T10:49:34;25.20;68.90
15900;DHT22;8048;50.644;6.184;2023-07-20T10:52:04;25.50;72.50
15900;DHT22;8048;50.644;6.184;2023-07-20T10:57:30;26.20;67.80
15900;DHT22;8048;50.644;6.184;2023-07-20T11:00:14;26.00;65.60
15900;DHT22;8048;50.644;6.184;2023-07-20T11:02:44;25.90;68.00
15900;DHT22;8048;50.644;6.184;2023-07-20T11:07:58;26.70;65.40
15900;DHT22;8048;50.644;6.184;2023-07-20T11:10:23;26.70;63.30
15900;DHT22;8048;50.644;6.184;2023-07-20T11:13:21;26.50;63.00
15900;DHT22;8048;50.644;6.184;2023-07-20T11:16:01;27.00;60.40
15900;DHT22;8048;50.644;6.184;2023-07-20T11:18:28;27.10;59.80
15900;DHT22;8048;50.644;6.184;2023-07-20T11:20:54;26.90;59.30
15900;DHT22;8048;50.644;6.184;2023-07-20T11:23:20;26.60;59.10
15900;DHT22;8048;50.644;6.184;2023-07-20T11:25:46;26.50;59.60
15900;DHT22;8048;50.644;6.184;2023-07-20T11:28:12;26.70;59.80
15900;DHT22;8048;50.644;6.184;2023-07-20T11:30:38;27.30;59.30
15900;DHT22;8048;50.644;6.184;2023-07-20T11:33:07;27.80;59.30
15900;DHT22;8048;50.644;6.184;2023-07-20T11:35:42;28.20;59.50
15900;DHT22;8048;50.644;6.184;2023-07-20T11:38:08;28.20;58.10
15900;DHT22;8048;50.644;6.184;2023-07-20T11:40:34;28.20;59.90
15900;DHT22;8048;50.644;6.184;2023-07-20T11:42:59;28.10;57.70
15900;DHT22;8048;50.644;6.184;2023-07-20T11:45:25;27.90;59.10
15900;DHT22;8048;50.644;6.184;2023-07-20T11:47:52;28.20;57.50
15900;DHT22;8048;50.644;6.184;2023-07-20T11:50:18;28.40;57.70
15900;DHT22;8048;50.644;6.184;2023-07-20T11:52:44;28.70;58.50
15900;DHT22;8048;50.644;6.184;2023-07-20T11:55:10;29.00;56.50
15900;DHT22;8048;50.644;6.184;2023-07-20T11:57:36;28.90;56.90
15900;DHT22;8048;50.644;6.184;2023-07-20T12:00:04;28.80;56.80
15900;DHT22;8048;50.644;6.184;2023-07-20T12:02:34;28.50;56.40
15900;DHT22;8048;50.644;6.184;2023-07-20T12:05:01;28.80;56.50
15900;DHT22;8048;50.644;6.184;2023-07-20T12:07:28;28.90;56.50
15900;DHT22;8048;50.644;6.184;2023-07-20T12:10:07;28.90;55.70
15900;DHT22;8048;50.644;6.184;2023-07-20T12:12:34;29.30;57.50
15900;DHT22;8048;50.644;6.184;2023-07-20T12:15:25;29.90;55.60
15900;DHT22;8048;50.644;6.184;2023-07-20T12:17:58;30.30;54.00
15900;DHT22;8048;50.644;6.184;2023-07-20T12:22:51;30.50;54.00
15900;DHT22;8048;50.644;6.184;2023-07-20T12:25:17;31.00;53.20
15900;DHT22;8048;50.644;6.184;2023-07-20T12:27:45;31.40;51.60
15900;DHT22;8048;50.644;6.184;2023-07-20T12:30:11;31.50;51.40
15900;DHT22;8048;50.644;6.184;2023-07-20T12:32:39;31.80;51.40
15900;DHT22;8048;50.644;6.184;2023-07-20T12:35:05;31.60;49.20
15900;DHT22;8048;50.644;6.184;2023-07-20T12:37:31;31.40;50.60
15900;DHT22;8048;50.644;6.184;2023-07-20T12:39:57;31.30;50.10
15900;DHT22;8048;50.644;6.184;2023-07-20T12:42:22;31.10;50.20
15900;DHT22;8048;50.644;6.184;2023-07-20T12:44:49;30.80;50.80
15900;DHT22;8048;50.644;6.184;2023-07-20T12:47:15;30.70;51.10
15900;DHT22;8048;50.644;6.184;2023-07-20T12:49:41;30.50;51.40
15900;DHT22;8048;50.644;6.184;2023-07-20T12:52:10;30.40;50.30
15900;DHT22;8048;50.644;6.184;2023-07-20T12:54:36;29.70;51.10
15900;DHT22;8048;50.644;6.184;2023-07-20T12:57:01;29.70;53.20
15900;DHT22;8048;50.644;6.184;2023-07-20T12:59:28;29.90;52.00
15900;DHT22;8048;50.644;6.184;2023-07-20T13:01:54;29.80;51.80
15900;DHT22;8048;50.644;6.184;2023-07-20T13:04:19;29.70;52.40
15900;DHT22;8048;50.644;6.184;2023-07-20T13:06:45;29.70;52.00
15900;DHT22;8048;50.644;6.184;2023-07-20T13:09:10;29.70;52.10
15900;DHT22;8048;50.644;6.184;2023-07-20T13:11:36;29.70;51.10
15900;DHT22;8048;50.644;6.184;2023-07-20T13:14:01;29.60;51.20
15900;DHT22;8048;50.644;6.184;2023-07-20T13:16:27;29.50;50.60
15900;DHT22;8048;50.644;6.184;2023-07-20T13:18:52;29.70;51.40
15900;DHT22;8048;50.644;6.184;2023-07-20T13:21:18;29.80;52.20
15900;DHT22;8048;50.644;6.184;2023-07-20T13:23:48;29.60;51.80
15900;DHT22;8048;50.644;6.184;2023-07-20T13:26:14;29.40;51.50
15900;DHT22;8048;50.644;6.184;2023-07-20T13:28:40;29.00;51.90
15900;DHT22;8048;50.644;6.184;2023-07-20T13:31:06;28.60;51.60
15900;DHT22;8048;50.644;6.184;2023-07-20T13:33:33;28.30;51.90
15900;DHT22;8048;50.644;6.184;2023-07-20T13:35:59;28.50;52.10
15900;DHT22;8048;50.644;6.184;2023-07-20T13:38:24;28.80;51.40
15900;DHT22;8048;50.644;6.184;2023-07-20T13:40:50;29.60;51.30
15900;DHT22;8048;50.644;6.184;2023-07-20T13:43:16;30.30;50.30
15900;DHT22;8048;50.644;6.184;2023-07-20T13:45:41;31.00;49.00
15900;DHT22;8048;50.644;6.184;2023-07-20T13:48:07;30.90;48.40
15900;DHT22;8048;50.644;6.184;2023-07-20T13:50:32;30.00;49.10
15900;DHT22;8048;50.644;6.184;2023-07-20T13:52:58;29.50;49.90
15900;DHT22;8048;50.644;6.184;2023-07-20T13:55:23;29.40;50.30
15900;DHT22;8048;50.644;6.184;2023-07-20T13:57:49;29.20;50.70
15900;DHT22;8048;50.644;6.184;2023-07-20T14:00:17;29.30;51.10
15900;DHT22;8048;50.644;6.184;2023-07-20T14:02:42;29.30;50.70
15900;DHT22;8048;50.644;6.184;2023-07-20T14:05:08;29.30;50.00
15900;DHT22;8048;50.644;6.184;2023-07-20T14:07:36;29.60;49.60
15900;DHT22;8048;50.644;6.184;2023-07-20T14:10:02;29.70;49.60
15900;DHT22;8048;50.644;6.184;2023-07-20T14:12:28;29.70;48.70
15900;DHT22;8048;50.644;6.184;2023-07-20T14:14:54;29.40;49.50
15900;DHT22;8048;50.644;6.184;2023-07-20T14:17:21;29.50;49.40
15900;DHT22;8048;50.644;6.184;2023-07-20T14:19:46;29.80;50.20
15900;DHT22;8048;50.644;6.184;2023-07-20T14:22:12;29.80;50.10
15900;DHT22;8048;50.644;6.184;2023-07-20T14:24:38;30.10;49.70
15900;DHT22;8048;50.644;6.184;2023-07-20T14:27:03;30.30;50.30
15900;DHT22;8048;50.644;6.184;2023-07-20T14:29:29;30.70;49.00
15900;DHT22;8048;50.644;6.184;2023-07-20T14:31:57;30.70;48.30
15900;DHT22;8048;50.644;6.184;2023-07-20T14:34:22;31.00;48.50
15900;DHT22;8048;50.644;6.184;2023-07-20T14:36:48;30.70;48.50
15900;DHT22;8048;50.644;6.184;2023-07-20T14:39:15;30.50;49.30
15900;DHT22;8048;50.644;6.184;2023-07-20T14:41:40;30.30;48.40
15900;DHT22;8048;50.644;6.184;2023-07-20T14:44:06;30.00;48.80
15900;DHT22;8048;50.644;6.184;2023-07-20T14:46:31;29.70;48.80
15900;DHT22;8048;50.644;6.184;2023-07-20T14:48:57;29.60;49.20
15900;DHT22;8048;50.644;6.184;2023-07-20T14:51:23;29.30;49.40
15900;DHT22;8048;50.644;6.184;2023-07-20T14:53:49;29.40;49.70
15900;DHT22;8048;50.644;6.184;2023-07-20T14:56:15;29.70;48.20
15900;DHT22;8048;50.644;6.184;2023-07-20T14:58:40;30.10;49.70
15900;DHT22;8048;50.644;6.184;2023-07-20T15:01:06;30.10;46.70
15900;DHT22;8048;50.644;6.184;2023-07-20T15:03:31;29.70;47.30
15900;DHT22;8048;50.644;6.184;2023-07-20T15:05:57;29.70;48.70
15900;DHT22;8048;50.644;6.184;2023-07-20T15:08:22;30.00;49.50
15900;DHT22;8048;50.644;6.184;2023-07-20T15:10:49;30.30;48.10
15900;DHT22;8048;50.644;6.184;2023-07-20T15:13:15;30.60;48.20
15900;DHT22;8048;50.644;6.184;2023-07-20T15:15:41;30.70;48.60
15900;DHT22;8048;50.644;6.184;2023-07-20T15:18:08;30.60;48.50
15900;DHT22;8048;50.644;6.184;2023-07-20T15:20:33;30.60;47.70
15900;DHT22;8048;50.644;6.184;2023-07-20T15:22:59;30.60;47.10
15900;DHT22;8048;50.644;6.184;2023-07-20T15:25:25;30.20;47.00
15900;DHT22;8048;50.644;6.184;2023-07-20T15:27:50;29.70;47.00
15900;DHT22;8048;50.644;6.184;2023-07-20T15:30:16;29.40;48.60
15900;DHT22;8048;50.644;6.184;2023-07-20T15:32:42;29.20;49.70
15900;DHT22;8048;50.644;6.184;2023-07-20T15:35:09;29.10;49.50
15900;DHT22;8048;50.644;6.184;2023-07-20T15:37:35;29.10;49.60
15900;DHT22;8048;50.644;6.184;2023-07-20T15:40:02;29.00;48.70
15900;DHT22;8048;50.644;6.184;2023-07-20T15:42:30;29.00;49.10
15900;DHT22;8048;50.644;6.184;2023-07-20T15:44:56;28.90;48.60
15900;DHT22;8048;50.644;6.184;2023-07-20T15:47:21;28.80;49.90
15900;DHT22;8048;50.644;6.184;2023-07-20T15:49:47;28.60;49.60
15900;DHT22;8048;50.644;6.184;2023-07-20T15:52:13;28.50;49.40
15900;DHT22;8048;50.644;6.184;2023-07-20T15:54:40;28.30;48.70
15900;DHT22;8048;50.644;6.184;2023-07-20T15:57:06;28.20;49.50
15900;DHT22;8048;50.644;6.184;2023-07-20T15:59:33;28.00;49.90
15900;DHT22;8048;50.644;6.184;2023-07-20T16:01:59;27.90;48.70